Time;durP1;ratioP1;P1;durP2;ratioP2;P2;SDS_P1;SDS_P2;PMS_P1;PMS_P2;Temp;Humidity;BMP_temperature;BMP_pressure;BME280_temperature;BME280_humidity;BME280_pressure;Samples;Min_cycle;Max_cycle;Signal;HPM_P1;HPM_P2
2023/04/14 00:00:50;;;;;;;19.02;8.32;;;;;;;;;;5096944;28;20398;-80
2023/04/14 00:03:35;;;;;;;24.83;8.18;;;;;;;;;;5102385;28;20044;-80
2023/04/14 00:06:20;;;;;;;20.60;8.30;;;;;;;;;;5096838;28;20040;-79
2023/04/14 00:09:06;;;;;;;18.63;8.15;;;;;;;;;;5096832;28;20039;-79
2023/04/14 00:11:51;;;;;;;21.13;6.93;;;;;;;;;;5096412;28;20040;-81
2023/04/14 00:14:37;;;;;;;21.73;7.80;;;;;;;;;;5095272;28;20489;-80
2023/04/14 00:17:22;;;;;;;13.85;6.70;;;;;;;;;;5096431;28;20409;-80
2023/04/14 00:20:08;;;;;;;14.73;6.43;;;;;;;;;;5096448;28;20048;-80
2023/04/14 00:22:55;;;;;;;14.82;6.15;;;;;;;;;;5096705;28;20044;-79
2023/04/14 00:25:40;;;;;;;14.63;5.78;;;;;;;;;;5095411;28;20398;-79
2023/04/14 00:28:26;;;;;;;14.05;4.85;;;;;;;;;;5096266;28;20044;-79
2023/04/14 00:31:11;;;;;;;19.33;5.38;;;;;;;;;;5102131;28;20481;-79
2023/04/14 00:33:57;;;;;;;13.60;5.20;;;;;;;;;;5101741;28;20048;-78
2023/04/14 00:36:42;;;;;;;15.85;5.47;;;;;;;;;;5101484;28;20485;-77
2023/04/14 00:39:28;;;;;;;13.75;5.43;;;;;;;;;;5087808;28;20048;-78
2023/04/14 00:42:14;;;;;;;15.25;5.03;;;;;;;;;;5100850;28;20043;-78
2023/04/14 00:44:59;;;;;;;10.52;4.35;;;;;;;;;;5102174;28;20048;-77
2023/04/14 00:47:48;;;;;;;16.55;4.00;;;;;;;;;;5096255;28;20048;-78
2023/04/14 00:50:32;;;;;;;13.60;3.35;;;;;;;;;;5096481;28;20056;-78
2023/04/14 00:53:18;;;;;;;9.57;2.75;;;;;;;;;;5095519;28;20048;-78
2023/04/14 00:56:04;;;;;;;9.48;3.05;;;;;;;;;;5096268;28;20486;-78
2023/04/14 00:58:50;;;;;;;14.35;3.20;;;;;;;;;;5101268;28;20040;-78
2023/04/14 01:01:36;;;;;;;11.15;3.72;;;;;;;;;;5095813;28;20052;-78
2023/04/14 01:04:22;;;;;;;11.45;2.55;;;;;;;;;;5095869;28;20394;-78
2023/04/14 01:07:07;;;;;;;14.02;3.63;;;;;;;;;;5101203;28;20048;-78
2023/04/14 01:09:56;;;;;;;11.80;3.20;;;;;;;;;;5095425;28;20036;-78
2023/04/14 01:13:10;;;;;;;11.27;2.80;;;;;;;;;;5093532;28;20040;-79
2023/04/14 01:15:59;;;;;;;17.98;3.35;;;;;;;;;;5086511;28;20048;-78
2023/04/14 01:19:14;;;;;;;10.90;3.28;;;;;;;;;;5086799;28;20431;-78
2023/04/14 01:22:05;;;;;;;7.65;2.88;;;;;;;;;;5086662;28;20048;-79
2023/04/14 01:25:03;;;;;;;6.90;2.83;;;;;;;;;;5095383;28;20040;-79
2023/04/14 01:27:54;;;;;;;8.10;3.30;;;;;;;;;;5101390;28;20044;-79
2023/04/14 01:30:52;;;;;;;12.75;3.20;;;;;;;;;;5086741;28;20040;-78
2023/04/14 01:33:40;;;;;;;5.72;2.90;;;;;;;;;;5101112;28;20044;-79
2023/04/14 01:36:33;;;;;;;8.70;3.20;;;;;;;;;;5100419;28;20032;-82
2023/04/14 01:39:23;;;;;;;9.65;3.00;;;;;;;;;;5100565;28;20044;-79
2023/04/14 01:42:13;;;;;;;13.45;3.42;;;;;;;;;;5100393;28;20048;-79
2023/04/14 01:45:05;;;;;;;16.60;3.33;;;;;;;;;;5100630;28;20040;-80
2023/04/14 01:47:52;;;;;;;8.27;3.10;;;;;;;;;;5101125;28;20044;-77
2023/04/14 01:50:41;;;;;;;11.23;3.20;;;;;;;;;;5093461;28;20502;-78
2023/04/14 01:53:27;;;;;;;8.27;2.97;;;;;;;;;;5094830;28;20397;-79
2023/04/14 01:56:15;;;;;;;11.05;3.38;;;;;;;;;;5094531;28;20047;-78
2023/04/14 01:59:03;;;;;;;7.75;3.55;;;;;;;;;;5101432;28;20048;-79
2023/04/14 02:01:50;;;;;;;11.50;3.55;;;;;;;;;;5100181;28;20044;-79
2023/04/14 02:04:38;;;;;;;7.53;3.35;;;;;;;;;;5100248;28;20048;-79
2023/04/14 02:07:29;;;;;;;8.75;3.05;;;;;;;;;;5100042;28;20048;-77
2023/04/14 02:10:19;;;;;;;9.70;3.42;;;;;;;;;;5086272;28;20040;-78
2023/04/14 02:13:06;;;;;;;6.63;3.13;;;;;;;;;;5094067;28;20040;-77
2023/04/14 02:15:51;;;;;;;6.53;3.05;;;;;;;;;;5100238;28;20040;-78
2023/04/14 02:18:40;;;;;;;9.52;3.60;;;;;;;;;;5099839;28;20032;-78
2023/04/14 02:21:30;;;;;;;8.45;3.10;;;;;;;;;;5099994;28;20493;-78
2023/04/14 02:24:16;;;;;;;16.88;3.20;;;;;;;;;;5085378;28;20040;-78
2023/04/14 02:27:29;;;;;;;7.80;3.25;;;;;;;;;;5093333;28;20040;-79
2023/04/14 02:30:30;;;;;;;8.52;2.90;;;;;;;;;;5093536;28;20044;-78
2023/04/14 02:33:20;;;;;;;9.38;3.05;;;;;;;;;;5092422;28;20054;-78
2023/04/14 02:36:15;;;;;;;5.40;2.55;;;;;;;;;;5092798;28;20044;-79
2023/04/14 02:39:07;;;;;;;13.07;2.88;;;;;;;;;;5099554;28;20036;-80
2023/04/14 02:41:57;;;;;;;6.72;3.35;;;;;;;;;;5093673;28;20397;-80
2023/04/14 02:45:04;;;;;;;11.45;3.20;;;;;;;;;;5099683;28;20036;-78
2023/04/14 02:47:54;;;;;;;7.53;3.55;;;;;;;;;;5099799;28;20048;-79
2023/04/14 02:50:43;;;;;;;9.18;3.90;;;;;;;;;;5086042;28;20052;-79
2023/04/14 02:53:33;;;;;;;11.25;3.92;;;;;;;;;;5073183;28;20056;-79
2023/04/14 02:56:27;;;;;;;11.73;3.35;;;;;;;;;;5099393;28;20393;-79
2023/04/14 02:59:16;;;;;;;11.85;3.22;;;;;;;;;;5099292;28;20039;-78
2023/04/14 03:02:16;;;;;;;11.48;3.72;;;;;;;;;;5099195;28;20044;-81
2023/04/14 03:05:06;;;;;;;9.68;3.85;;;;;;;;;;5100812;28;20481;-78
2023/04/14 03:08:05;;;;;;;10.00;3.75;;;;;;;;;;5103662;28;20043;-78
2023/04/14 03:10:52;;;;;;;9.02;3.63;;;;;;;;;;5103728;28;20504;-79
2023/04/14 03:13:42;;;;;;;12.15;4.30;;;;;;;;;;5103323;28;20044;-79
2023/04/14 03:16:28;;;;;;;8.27;3.67;;;;;;;;;;5102741;28;20036;-79
2023/04/14 03:19:15;;;;;;;12.05;4.25;;;;;;;;;;5103746;28;20040;-79
2023/04/14 03:22:04;;;;;;;17.50;6.22;;;;;;;;;;5103439;28;20044;-79
2023/04/14 03:24:52;;;;;;;73.40;21.48;;;;;;;;;;5096391;28;20047;-79
2023/04/14 03:27:38;;;;;;;134.20;39.53;;;;;;;;;;5096721;28;20047;-80
2023/04/14 03:30:29;;;;;;;164.45;41.47;;;;;;;;;;5103769;28;20036;-79
2023/04/14 03:33:21;;;;;;;111.18;30.02;;;;;;;;;;5102636;28;20044;-80
2023/04/14 03:36:07;;;;;;;119.82;31.83;;;;;;;;;;5103240;28;20048;-79
2023/04/14 03:38:56;;;;;;;64.07;17.90;;;;;;;;;;5102602;28;20052;-79
2023/04/14 03:41:46;;;;;;;65.80;19.15;;;;;;;;;;5102686;28;20048;-79
2023/04/14 03:44:36;;;;;;;37.38;12.63;;;;;;;;;;5102823;28;20036;-79
2023/04/14 03:47:27;;;;;;;53.97;16.73;;;;;;;;;;5088778;28;20040;-80
2023/04/14 03:50:14;;;;;;;29.42;11.30;;;;;;;;;;5088461;28;20051;-80
2023/04/14 03:53:00;;;;;;;15.30;5.70;;;;;;;;;;5102234;28;20032;-79
2023/04/14 03:55:48;;;;;;;13.30;4.57;;;;;;;;;;5102465;28;20042;-79
2023/04/14 03:58:34;;;;;;;11.93;4.55;;;;;;;;;;5097052;28;20043;-79
2023/04/14 04:01:24;;;;;;;14.02;3.58;;;;;;;;;;5097125;28;20389;-79
2023/04/14 04:04:11;;;;;;;12.18;3.75;;;;;;;;;;5103094;28;20036;-79
2023/04/14 04:06:57;;;;;;;12.38;3.55;;;;;;;;;;5102829;28;20040;-79
2023/04/14 04:09:45;;;;;;;10.50;3.45;;;;;;;;;;5102214;28;20044;-79
2023/04/14 04:12:31;;;;;;;9.40;3.30;;;;;;;;;;5087742;28;20040;-79
2023/04/14 04:15:19;;;;;;;8.38;2.60;;;;;;;;;;5102063;28;20060;-79
2023/04/14 04:18:07;;;;;;;13.43;3.10;;;;;;;;;;5101518;28;20040;-79
2023/04/14 04:20:56;;;;;;;9.65;3.60;;;;;;;;;;5102403;28;20385;-79
2023/04/14 04:23:45;;;;;;;8.05;3.15;;;;;;;;;;5102188;28;20044;-80
2023/04/14 04:26:30;;;;;;;9.10;3.00;;;;;;;;;;5102503;28;20044;-79
2023/04/14 04:29:16;;;;;;;8.32;2.80;;;;;;;;;;5097157;28;20044;-79
2023/04/14 04:32:04;;;;;;;7.45;3.40;;;;;;;;;;5102399;28;20075;-79
2023/04/14 04:34:51;;;;;;;10.55;3.22;;;;;;;;;;5103076;28;20032;-80
2023/04/14 04:37:37;;;;;;;13.93;3.67;;;;;;;;;;5101902;28;20036;-79
2023/04/14 04:40:23;;;;;;;13.00;3.45;;;;;;;;;;5087861;28;20044;-79
2023/04/14 04:43:09;;;;;;;8.60;2.85;;;;;;;;;;5101399;28;20044;-79
2023/04/14 04:46:12;;;;;;;9.50;2.72;;;;;;;;;;5101691;28;20048;-80
2023/04/14 04:48:57;;;;;;;7.50;3.22;;;;;;;;;;5101440;28;20474;-79
2023/04/14 04:51:43;;;;;;;12.55;4.50;;;;;;;;;;5094595;28;20032;-80
2023/04/14 04:54:29;;;;;;;8.48;3.72;;;;;;;;;;5101461;28;20048;-79
2023/04/14 04:57:14;;;;;;;7.88;3.40;;;;;;;;;;5095498;28;20489;-79
2023/04/14 05:00:00;;;;;;;6.80;3.83;;;;;;;;;;5095569;28;20044;-79
2023/04/14 05:02:45;;;;;;;4.80;2.60;;;;;;;;;;5095797;28;20052;-79
2023/04/14 05:05:35;;;;;;;7.60;3.70;;;;;;;;;;5094804;28;20036;-79
2023/04/14 05:08:21;;;;;;;7.90;3.95;;;;;;;;;;5095516;28;20401;-81
2023/04/14 05:11:08;;;;;;;8.68;3.53;;;;;;;;;;5095747;28;20044;-81
2023/04/14 05:13:53;;;;;;;5.53;3.05;;;;;;;;;;5100713;28;20048;-81
2023/04/14 05:16:38;;;;;;;5.00;3.00;;;;;;;;;;5094338;28;20044;-80
2023/04/14 05:19:24;;;;;;;6.65;3.85;;;;;;;;;;5094238;28;20044;-81
2023/04/14 05:22:11;;;;;;;8.55;3.67;;;;;;;;;;5095691;28;20422;-80
2023/04/14 05:24:57;;;;;;;4.93;2.97;;;;;;;;;;5095048;28;20048;-80
2023/04/14 05:27:42;;;;;;;7.50;3.92;;;;;;;;;;5095008;28;20048;-80
2023/04/14 05:30:28;;;;;;;11.65;4.50;;;;;;;;;;5094797;28;20052;-80
2023/04/14 05:33:13;;;;;;;6.50;2.95;;;;;;;;;;5093613;28;20478;-80
2023/04/14 05:35:58;;;;;;;4.30;2.80;;;;;;;;;;5094930;28;20040;-80
2023/04/14 05:38:43;;;;;;;5.45;3.53;;;;;;;;;;5094863;28;20393;-79
2023/04/14 05:41:29;;;;;;;20.10;10.88;;;;;;;;;;5093939;28;20040;-78
2023/04/14 05:44:15;;;;;;;25.67;10.40;;;;;;;;;;5094722;28;20044;-78
2023/04/14 05:47:00;;;;;;;6.18;3.72;;;;;;;;;;5094586;28;20397;-79
2023/04/14 05:49:45;;;;;;;8.88;4.05;;;;;;;;;;5094632;28;20044;-78
2023/04/14 05:52:31;;;;;;;7.47;3.53;;;;;;;;;;5100555;28;20402;-79
2023/04/14 05:55:16;;;;;;;6.38;3.35;;;;;;;;;;5094645;28;20032;-79
2023/04/14 05:58:01;;;;;;;8.02;3.75;;;;;;;;;;5094428;28;20040;-78
2023/04/14 06:00:46;;;;;;;10.50;3.55;;;;;;;;;;5094256;28;20044;-79
2023/04/14 06:03:32;;;;;;;10.18;3.08;;;;;;;;;;5094405;28;20040;-78
2023/04/14 06:06:18;;;;;;;5.93;3.10;;;;;;;;;;5094390;28;20044;-79
2023/04/14 06:09:03;;;;;;;7.90;3.30;;;;;;;;;;5094326;28;20044;-79
2023/04/14 06:11:49;;;;;;;7.55;5.00;;;;;;;;;;5094265;28;20048;-78
2023/04/14 06:14:35;;;;;;;10.13;4.72;;;;;;;;;;5093848;28;20040;-78
2023/04/14 06:17:21;;;;;;;10.93;4.43;;;;;;;;;;5094401;28;20040;-79
2023/04/14 06:20:06;;;;;;;12.70;5.82;;;;;;;;;;5094127;28;20044;-79
2023/04/14 06:22:52;;;;;;;11.27;5.88;;;;;;;;;;5094419;28;20048;-79
2023/04/14 06:25:37;;;;;;;13.07;8.43;;;;;;;;;;5094408;28;20494;-79
2023/04/14 06:28:24;;;;;;;30.63;15.32;;;;;;;;;;5093919;28;20044;-79
2023/04/14 06:31:09;;;;;;;17.60;8.23;;;;;;;;;;5085922;28;20044;-79
2023/04/14 06:33:55;;;;;;;15.77;8.90;;;;;;;;;;5093724;28;20043;-79
2023/04/14 06:36:40;;;;;;;11.40;6.10;;;;;;;;;;5094406;28;20048;-79
2023/04/14 06:39:26;;;;;;;13.35;6.32;;;;;;;;;;5093312;28;20048;-79
2023/04/14 06:42:12;;;;;;;14.13;6.35;;;;;;;;;;5094778;28;20055;-79
2023/04/14 06:44:57;;;;;;;11.20;5.57;;;;;;;;;;5095153;28;20044;-79
2023/04/14 06:47:43;;;;;;;9.35;5.60;;;;;;;;;;5094171;28;20048;-80
2023/04/14 06:50:29;;;;;;;12.68;6.78;;;;;;;;;;5094666;28;20478;-80
2023/04/14 06:53:14;;;;;;;13.57;6.88;;;;;;;;;;5095430;28;20043;-79
2023/04/14 06:56:00;;;;;;;11.38;5.50;;;;;;;;;;5094799;28;20498;-81
2023/04/14 06:58:45;;;;;;;24.17;6.97;;;;;;;;;;5094369;28;20040;-81
2023/04/14 07:01:31;;;;;;;9.65;4.22;;;;;;;;;;5094363;28;20040;-80
2023/04/14 07:04:18;;;;;;;7.93;3.15;;;;;;;;;;5094881;28;20048;-80
2023/04/14 07:07:03;;;;;;;6.20;3.20;;;;;;;;;;5094660;28;20397;-80
2023/04/14 07:09:49;;;;;;;12.45;3.17;;;;;;;;;;5093305;28;20040;-80
2023/04/14 07:12:34;;;;;;;5.78;2.80;;;;;;;;;;5094425;28;20040;-81
2023/04/14 07:15:19;;;;;;;11.77;5.10;;;;;;;;;;5094355;28;20045;-80
2023/04/14 07:18:05;;;;;;;22.98;9.00;;;;;;;;;;5095092;28;20490;-80
2023/04/14 07:20:52;;;;;;;13.60;6.65;;;;;;;;;;5095820;28;20040;-80
2023/04/14 07:23:37;;;;;;;8.77;4.75;;;;;;;;;;5094620;28;20040;-80
2023/04/14 07:26:23;;;;;;;8.93;4.30;;;;;;;;;;5092384;28;20048;-81
2023/04/14 07:29:09;;;;;;;9.50;4.55;;;;;;;;;;5093596;28;20044;-80
2023/04/14 07:31:54;;;;;;;34.25;11.65;;;;;;;;;;5093072;28;20036;-79
2023/04/14 07:34:42;;;;;;;10.65;5.30;;;;;;;;;;5085201;28;20040;-79
2023/04/14 07:37:27;;;;;;;3.20;2.15;;;;;;;;;;5093385;28;20048;-81
2023/04/14 07:40:13;;;;;;;2.25;1.55;;;;;;;;;;5094224;28;20040;-81
2023/04/14 07:42:58;;;;;;;1.42;1.33;;;;;;;;;;5094775;28;20036;-79
2023/04/14 07:45:44;;;;;;;2.00;1.08;;;;;;;;;;5099471;28;20048;-80
2023/04/14 07:48:30;;;;;;;23.13;5.47;;;;;;;;;;5093554;28;20036;-78
2023/04/14 07:51:15;;;;;;;2.38;1.70;;;;;;;;;;5094688;28;20040;-77
2023/04/14 07:54:01;;;;;;;38.05;33.92;;;;;;;;;;5096443;28;20044;-77
2023/04/14 07:56:47;;;;;;;116.53;18.13;;;;;;;;;;5097057;28;20059;-78
2023/04/14 07:59:33;;;;;;;9.32;8.68;;;;;;;;;;5096669;28;20051;-78
2023/04/14 08:02:19;;;;;;;17.45;8.52;;;;;;;;;;5096463;28;20389;-79
2023/04/14 08:05:04;;;;;;;27.83;17.15;;;;;;;;;;5095620;28;20485;-80
2023/04/14 08:07:50;;;;;;;6.63;4.20;;;;;;;;;;5096594;28;20052;-77
2023/04/14 08:10:38;;;;;;;8.98;4.40;;;;;;;;;;5095658;28;20040;-77
2023/04/14 08:13:28;;;;;;;222.45;107.18;;;;;;;;;;5095257;28;20048;-78
2023/04/14 08:16:14;;;;;;;358.38;203.38;;;;;;;;;;5096213;28;20044;-79
2023/04/14 08:18:59;;;;;;;9.55;5.05;;;;;;;;;;5093768;28;20040;-78
2023/04/14 08:21:45;;;;;;;9.65;3.20;;;;;;;;;;5094922;28;20485;-78
2023/04/14 08:24:30;;;;;;;10.85;4.93;;;;;;;;;;5096102;28;20052;-78
2023/04/14 08:27:16;;;;;;;17.27;7.97;;;;;;;;;;5095847;28;20051;-78
2023/04/14 08:30:01;;;;;;;17.08;8.57;;;;;;;;;;5095097;28;20052;-78
2023/04/14 08:32:47;;;;;;;15.27;6.88;;;;;;;;;;5095876;28;20390;-78
2023/04/14 08:35:34;;;;;;;7.90;3.55;;;;;;;;;;5095340;28;20040;-80
2023/04/14 08:38:19;;;;;;;4.20;2.95;;;;;;;;;;5095895;28;20056;-77
2023/04/14 08:41:08;;;;;;;7.75;4.00;;;;;;;;;;5095807;28;20040;-78
2023/04/14 08:43:53;;;;;;;4.07;2.80;;;;;;;;;;5097824;28;20482;-78
2023/04/14 08:46:41;;;;;;;5.28;3.17;;;;;;;;;;5096416;28;20386;-77
2023/04/14 08:49:40;;;;;;;7.25;3.53;;;;;;;;;;5096039;28;20048;-80
2023/04/14 08:52:27;;;;;;;10.07;4.65;;;;;;;;;;5095757;28;20040;-78
2023/04/14 08:55:15;;;;;;;9.38;5.35;;;;;;;;;;5095362;28;20044;-78
2023/04/14 08:58:01;;;;;;;13.68;6.13;;;;;;;;;;5095696;28;20481;-80
2023/04/14 09:00:47;;;;;;;7.32;4.43;;;;;;;;;;5095555;28;20036;-76
2023/04/14 09:03:33;;;;;;;6.57;4.25;;;;;;;;;;5095238;28;20056;-74
2023/04/14 09:06:19;;;;;;;13.77;7.82;;;;;;;;;;5095703;28;20048;-73
2023/04/14 09:09:08;;;;;;;10.93;5.55;;;;;;;;;;5095281;28;20044;-74
2023/04/14 09:11:53;;;;;;;9.18;5.00;;;;;;;;;;5095182;28;20481;-74
2023/04/14 09:14:39;;;;;;;9.48;5.10;;;;;;;;;;5095331;28;20048;-74
2023/04/14 09:17:26;;;;;;;10.30;5.20;;;;;;;;;;5094832;28;20036;-75
2023/04/14 09:20:12;;;;;;;5.53;4.13;;;;;;;;;;5094288;28;20485;-75
2023/04/14 09:22:58;;;;;;;5.93;3.15;;;;;;;;;;5095413;28;20044;-79
2023/04/14 09:25:44;;;;;;;7.47;4.07;;;;;;;;;;5095099;28;20052;-74
2023/04/14 09:28:30;;;;;;;5.82;3.42;;;;;;;;;;5094698;28;20044;-75
2023/04/14 09:31:15;;;;;;;15.45;8.15;;;;;;;;;;5094960;28;20062;-75
2023/04/14 09:34:01;;;;;;;15.90;9.32;;;;;;;;;;5094996;28;20394;-77
2023/04/14 09:37:03;;;;;;;13.60;7.40;;;;;;;;;;5094632;28;20044;-74
2023/04/14 09:39:53;;;;;;;7.40;4.43;;;;;;;;;;5094951;28;20047;-75
2023/04/14 09:42:39;;;;;;;16.25;8.43;;;;;;;;;;5094687;28;20394;-77
2023/04/14 09:45:41;;;;;;;10.48;5.85;;;;;;;;;;5094701;28;20048;-78
2023/04/14 09:48:26;;;;;;;18.80;8.98;;;;;;;;;;5094809;28;20056;-77
2023/04/14 09:51:12;;;;;;;11.75;8.63;;;;;;;;;;5094975;28;20036;-77
2023/04/14 09:54:01;;;;;;;5.13;2.22;;;;;;;;;;5093646;28;20040;-76
2023/04/14 09:56:46;;;;;;;16.88;10.38;;;;;;;;;;5099743;28;20036;-76
2023/04/14 09:59:33;;;;;;;43.13;27.00;;;;;;;;;;5094032;28;20397;-77
2023/04/14 10:02:19;;;;;;;9.02;6.28;;;;;;;;;;5097229;28;20052;-77
2023/04/14 10:05:05;;;;;;;3.35;2.65;;;;;;;;;;5093261;28;20052;-78
2023/04/14 10:07:51;;;;;;;4.68;2.65;;;;;;;;;;5093348;28;20390;-76
2023/04/14 10:10:36;;;;;;;7.28;3.97;;;;;;;;;;5094099;28;20052;-77
2023/04/14 10:13:27;;;;;;;6.00;3.38;;;;;;;;;;5094129;28;20044;-75
2023/04/14 10:16:13;;;;;;;57.45;24.20;;;;;;;;;;5099678;28;20044;-77
2023/04/14 10:18:58;;;;;;;20.85;12.90;;;;;;;;;;5092982;28;20048;-78
2023/04/14 10:21:44;;;;;;;10.10;4.95;;;;;;;;;;5090800;28;20056;-78
2023/04/14 10:24:30;;;;;;;6.18;2.60;;;;;;;;;;5092673;28;20044;-78
2023/04/14 10:27:16;;;;;;;5.80;3.92;;;;;;;;;;5094755;28;20044;-79
2023/04/14 10:30:05;;;;;;;5.15;3.47;;;;;;;;;;5092792;28;20040;-78
2023/04/14 10:32:50;;;;;;;6.10;4.28;;;;;;;;;;5093808;28;20044;-79
2023/04/14 10:35:42;;;;;;;10.80;5.03;;;;;;;;;;5094949;28;20039;-77
2023/04/14 10:38:41;;;;;;;3.50;2.28;;;;;;;;;;5093645;28;20044;-78
2023/04/14 10:41:26;;;;;;;5.38;2.78;;;;;;;;;;5093551;28;20382;-76
2023/04/14 10:44:28;;;;;;;6.53;3.17;;;;;;;;;;5093742;28;20051;-80
2023/04/14 10:47:23;;;;;;;4.50;3.08;;;;;;;;;;5095158;28;20497;-77
2023/04/14 10:50:13;;;;;;;4.97;3.15;;;;;;;;;;5094125;28;20478;-77
2023/04/14 10:53:05;;;;;;;4.93;2.70;;;;;;;;;;5094248;28;20040;-80
2023/04/14 10:55:53;;;;;;;3.72;2.30;;;;;;;;;;5093835;28;20040;-79
2023/04/14 10:58:38;;;;;;;3.55;2.42;;;;;;;;;;5092897;28;20486;-79
2023/04/14 11:01:38;;;;;;;2.78;1.98;;;;;;;;;;5094351;28;20083;-79
2023/04/14 11:04:24;;;;;;;3.95;2.40;;;;;;;;;;5099291;28;20052;-78
2023/04/14 11:07:10;;;;;;;2.67;1.92;;;;;;;;;;5091401;28;20040;-80
2023/04/14 11:10:20;;;;;;;2.58;1.40;;;;;;;;;;5093733;28;20048;-79
2023/04/14 11:13:10;;;;;;;2.70;1.42;;;;;;;;;;5091939;28;20036;-80
2023/04/14 11:16:09;;;;;;;2.28;1.40;;;;;;;;;;5090729;28;20044;-79
2023/04/14 11:18:55;;;;;;;0.70;0.70;;;;;;;;;;5093267;28;20052;-81
2023/04/14 11:21:48;;;;;;;1.40;1.15;;;;;;;;;;5092612;28;20032;-79
2023/04/14 11:24:35;;;;;;;1.35;0.80;;;;;;;;;;5092135;28;20052;-79
2023/04/14 11:27:20;;;;;;;2.72;0.50;;;;;;;;;;5096965;28;20053;-79
2023/04/14 11:30:08;;;;;;;0.40;0.40;;;;;;;;;;5099675;28;20048;-78
2023/04/14 11:32:56;;;;;;;0.40;0.40;;;;;;;;;;5096605;28;20036;-82
2023/04/14 11:35:43;;;;;;;1.80;0.90;;;;;;;;;;5095895;28;20047;-81
2023/04/14 11:38:29;;;;;;;10.38;4.20;;;;;;;;;;5096389;28;20044;-81
2023/04/14 11:41:15;;;;;;;2.20;0.80;;;;;;;;;;5095957;28;20040;-81
2023/04/14 11:44:00;;;;;;;3.28;1.50;;;;;;;;;;5097946;28;20474;-81
2023/04/14 11:46:45;;;;;;;1.70;0.63;;;;;;;;;;5094435;28;20048;-78
2023/04/14 11:49:34;;;;;;;3.85;2.03;;;;;;;;;;5096026;28;20044;-77
2023/04/14 11:52:20;;;;;;;0.60;0.60;;;;;;;;;;5095976;28;20490;-77
2023/04/14 11:55:06;;;;;;;2.47;0.77;;;;;;;;;;5095475;28;20040;-77
2023/04/14 11:57:53;;;;;;;0.82;0.52;;;;;;;;;;5095742;28;20485;-78
2023/04/14 12:00:39;;;;;;;1.05;0.50;;;;;;;;;;5094951;28;20044;-77
2023/04/14 12:03:30;;;;;;;3.42;1.40;;;;;;;;;;5093614;28;20044;-78
2023/04/14 12:06:15;;;;;;;1.25;0.80;;;;;;;;;;5094915;28;20485;-78
2023/04/14 12:09:07;;;;;;;3.20;1.27;;;;;;;;;;5094823;28;20040;-77
